sensor_id;sensor_type;location;lat;lon;timestamp;P1;durP1;ratioP1;P2;durP2;ratioP2
3997;SDS011;61314;53.444;9.902;2023-04-01T00:01:46;8.60;;;4.90;;
3997;SDS011;61314;53.444;9.902;2023-04-01T00:04:13;7.07;;;5.20;;
3997;SDS011;61314;53.444;9.902;2023-04-01T00:06:41;7.23;;;4.57;;
3997;SDS011;61314;53.444;9.902;2023-04-01T00:09:08;7.27;;;4.27;;
3997;SDS011;61314;53.444;9.902;2023-04-01T00:11:35;10.65;;;5.65;;
3997;SDS011;61314;53.444;9.902;2023-04-01T00:14:02;9.50;;;5.82;;
3997;SDS011;61314;53.444;9.902;2023-04-01T00:16:30;8.15;;;5.03;;
3997;SDS011;61314;53.444;9.902;2023-04-01T00:18:57;7.68;;;5.90;;
3997;SDS011;61314;53.444;9.902;2023-04-01T00:21:24;7.38;;;5.03;;
3997;SDS011;61314;53.444;9.902;2023-04-01T00:23:51;10.33;;;5.73;;
3997;SDS011;61314;53.444;9.902;2023-04-01T00:26:18;9.88;;;5.32;;
3997;SDS011;61314;53.444;9.902;2023-04-01T00:28:47;8.15;;;5.50;;
3997;SDS011;61314;53.444;9.902;2023-04-01T00:31:14;8.15;;;5.03;;
3997;SDS011;61314;53.444;9.902;2023-04-01T00:33:41;7.18;;;4.95;;
3997;SDS011;61314;53.444;9.902;2023-04-01T00:36:12;7.72;;;5.25;;
3997;SDS011;61314;53.444;9.902;2023-04-01T00:38:40;10.10;;;6.22;;
3997;SDS011;61314;53.444;9.902;2023-04-01T00:41:08;8.65;;;5.88;;
3997;SDS011;61314;53.444;9.902;2023-04-01T00:43:40;6.25;;;5.22;;
3997;SDS011;61314;53.444;9.902;2023-04-01T00:46:08;7.57;;;5.72;;
3997;SDS011;61314;53.444;9.902;2023-04-01T00:48:35;11.07;;;6.65;;
3997;SDS011;61314;53.444;9.902;2023-04-01T00:51:07;7.70;;;5.72;;
3997;SDS011;61314;53.444;9.902;2023-04-01T00:53:36;10.77;;;5.65;;
3997;SDS011;61314;53.444;9.902;2023-04-01T00:56:04;12.00;;;6.30;;
3997;SDS011;61314;53.444;9.902;2023-04-01T00:58:33;10.00;;;6.80;;
3997;SDS011;61314;53.444;9.902;2023-04-01T01:01:02;12.73;;;7.50;;
3997;SDS011;61314;53.444;9.902;2023-04-01T01:03:29;10.88;;;7.32;;
3997;SDS011;61314;53.444;9.902;2023-04-01T01:06:00;14.82;;;8.52;;
3997;SDS011;61314;53.444;9.902;2023-04-01T01:08:34;17.10;;;8.73;;
3997;SDS011;61314;53.444;9.902;2023-04-01T01:11:07;11.25;;;8.77;;
3997;SDS011;61314;53.444;9.902;2023-04-01T01:13:36;10.75;;;7.72;;
3997;SDS011;61314;53.444;9.902;2023-04-01T01:16:06;11.80;;;8.07;;
3997;SDS011;61314;53.444;9.902;2023-04-01T01:18:50;12.53;;;7.80;;
3997;SDS011;61314;53.444;9.902;2023-04-01T01:24:04;10.10;;;7.53;;
3997;SDS011;61314;53.444;9.902;2023-04-01T01:26:46;11.50;;;7.77;;
3997;SDS011;61314;53.444;9.902;2023-04-01T01:32:44;9.43;;;8.25;;
3997;SDS011;61314;53.444;9.902;2023-04-01T01:37:20;12.57;;;8.30;;
3997;SDS011;61314;53.444;9.902;2023-04-01T01:39:51;11.10;;;7.93;;
3997;SDS011;61314;53.444;9.902;2023-04-01T01:42:19;14.35;;;7.35;;
3997;SDS011;61314;53.444;9.902;2023-04-01T01:44:47;11.13;;;8.40;;
3997;SDS011;61314;53.444;9.902;2023-04-01T01:47:15;11.32;;;8.05;;
3997;SDS011;61314;53.444;9.902;2023-04-01T01:49:43;12.38;;;7.20;;
3997;SDS011;61314;53.444;9.902;2023-04-01T01:52:12;13.93;;;7.43;;
3997;SDS011;61314;53.444;9.902;2023-04-01T01:54:46;12.02;;;8.18;;
3997;SDS011;61314;53.444;9.902;2023-04-01T01:57:14;12.80;;;8.10;;
3997;SDS011;61314;53.444;9.902;2023-04-01T01:59:41;12.27;;;8.77;;
3997;SDS011;61314;53.444;9.902;2023-04-01T02:02:09;11.83;;;8.10;;
3997;SDS011;61314;53.444;9.902;2023-04-01T02:04:37;14.25;;;7.53;;
3997;SDS011;61314;53.444;9.902;2023-04-01T02:07:19;9.40;;;8.25;;
3997;SDS011;61314;53.444;9.902;2023-04-01T02:09:48;13.30;;;8.50;;
3997;SDS011;61314;53.444;9.902;2023-04-01T02:12:16;12.73;;;7.37;;
3997;SDS011;61314;53.444;9.902;2023-04-01T02:14:50;18.00;;;8.52;;
3997;SDS011;61314;53.444;9.902;2023-04-01T02:17:19;9.80;;;7.90;;
3997;SDS011;61314;53.444;9.902;2023-04-01T02:22:18;9.43;;;8.10;;
3997;SDS011;61314;53.444;9.902;2023-04-01T02:24:47;13.27;;;8.70;;
3997;SDS011;61314;53.444;9.902;2023-04-01T02:27:15;14.02;;;9.25;;
3997;SDS011;61314;53.444;9.902;2023-04-01T02:29:42;9.82;;;8.82;;
3997;SDS011;61314;53.444;9.902;2023-04-01T02:32:10;14.02;;;8.85;;
3997;SDS011;61314;53.444;9.902;2023-04-01T02:34:37;13.18;;;8.38;;
3997;SDS011;61314;53.444;9.902;2023-04-01T02:37:04;18.25;;;9.02;;
3997;SDS011;61314;53.444;9.902;2023-04-01T02:39:31;10.10;;;9.18;;
3997;SDS011;61314;53.444;9.902;2023-04-01T02:41:58;12.30;;;9.55;;
3997;SDS011;61314;53.444;9.902;2023-04-01T02:44:25;19.35;;;8.70;;
3997;SDS011;61314;53.444;9.902;2023-04-01T02:46:52;13.93;;;8.63;;
3997;SDS011;61314;53.444;9.902;2023-04-01T02:49:19;10.13;;;8.05;;
3997;SDS011;61314;53.444;9.902;2023-04-01T02:51:46;15.98;;;7.47;;
3997;SDS011;61314;53.444;9.902;2023-04-01T02:54:13;11.98;;;8.77;;
3997;SDS011;61314;53.444;9.902;2023-04-01T02:56:41;9.98;;;8.95;;
3997;SDS011;61314;53.444;9.902;2023-04-01T02:59:08;12.45;;;8.15;;
3997;SDS011;61314;53.444;9.902;2023-04-01T03:01:35;9.70;;;8.70;;
3997;SDS011;61314;53.444;9.902;2023-04-01T03:04:02;12.77;;;8.95;;
3997;SDS011;61314;53.444;9.902;2023-04-01T03:06:29;11.95;;;8.82;;
3997;SDS011;61314;53.444;9.902;2023-04-01T03:08:56;10.82;;;9.40;;
3997;SDS011;61314;53.444;9.902;2023-04-01T03:11:23;11.93;;;8.63;;
3997;SDS011;61314;53.444;9.902;2023-04-01T03:13:54;17.70;;;8.65;;
3997;SDS011;61314;53.444;9.902;2023-04-01T03:16:22;13.90;;;8.98;;
3997;SDS011;61314;53.444;9.902;2023-04-01T03:18:49;12.50;;;7.82;;
3997;SDS011;61314;53.444;9.902;2023-04-01T03:21:19;14.98;;;9.45;;
3997;SDS011;61314;53.444;9.902;2023-04-01T03:23:47;14.27;;;8.30;;
3997;SDS011;61314;53.444;9.902;2023-04-01T03:26:14;15.77;;;8.53;;
3997;SDS011;61314;53.444;9.902;2023-04-01T03:28:41;12.57;;;7.97;;
3997;SDS011;61314;53.444;9.902;2023-04-01T03:31:08;13.10;;;8.52;;
3997;SDS011;61314;53.444;9.902;2023-04-01T03:33:35;18.00;;;9.00;;
3997;SDS011;61314;53.444;9.902;2023-04-01T03:36:02;10.90;;;8.35;;
3997;SDS011;61314;53.444;9.902;2023-04-01T03:38:33;13.32;;;9.52;;
3997;SDS011;61314;53.444;9.902;2023-04-01T03:41:00;14.20;;;8.90;;
3997;SDS011;61314;53.444;9.902;2023-04-01T03:43:27;14.70;;;9.80;;
3997;SDS011;61314;53.444;9.902;2023-04-01T03:45:54;12.27;;;8.13;;
3997;SDS011;61314;53.444;9.902;2023-04-01T03:48:23;12.15;;;9.77;;
3997;SDS011;61314;53.444;9.902;2023-04-01T03:50:51;13.10;;;8.98;;
3997;SDS011;61314;53.444;9.902;2023-04-01T03:53:18;12.05;;;9.05;;
3997;SDS011;61314;53.444;9.902;2023-04-01T03:55:45;14.93;;;9.07;;
3997;SDS011;61314;53.444;9.902;2023-04-01T03:58:12;10.70;;;9.53;;
3997;SDS011;61314;53.444;9.902;2023-04-01T04:00:40;14.70;;;9.30;;
3997;SDS011;61314;53.444;9.902;2023-04-01T04:03:07;24.02;;;10.38;;
3997;SDS011;61314;53.444;9.902;2023-04-01T04:05:34;12.00;;;9.70;;
3997;SDS011;61314;53.444;9.902;2023-04-01T04:08:01;14.60;;;10.17;;
3997;SDS011;61314;53.444;9.902;2023-04-01T04:10:28;10.63;;;9.57;;
3997;SDS011;61314;53.444;9.902;2023-04-01T04:12:56;15.27;;;8.75;;
3997;SDS011;61314;53.444;9.902;2023-04-01T04:15:23;12.63;;;9.17;;
3997;SDS011;61314;53.444;9.902;2023-04-01T04:17:50;18.73;;;10.68;;
3997;SDS011;61314;53.444;9.902;2023-04-01T04:20:17;18.30;;;10.30;;
3997;SDS011;61314;53.444;9.902;2023-04-01T04:22:44;10.63;;;9.38;;
3997;SDS011;61314;53.444;9.902;2023-04-01T04:25:11;18.63;;;11.00;;
3997;SDS011;61314;53.444;9.902;2023-04-01T04:27:38;11.20;;;8.95;;
3997;SDS011;61314;53.444;9.902;2023-04-01T04:30:06;16.67;;;9.80;;
3997;SDS011;61314;53.444;9.902;2023-04-01T04:32:33;16.00;;;10.27;;
3997;SDS011;61314;53.444;9.902;2023-04-01T04:35:00;16.73;;;10.13;;
3997;SDS011;61314;53.444;9.902;2023-04-01T04:37:28;14.88;;;9.93;;
3997;SDS011;61314;53.444;9.902;2023-04-01T04:39:55;14.02;;;9.27;;
3997;SDS011;61314;53.444;9.902;2023-04-01T04:42:22;13.18;;;10.48;;
3997;SDS011;61314;53.444;9.902;2023-04-01T04:44:49;14.10;;;9.32;;
3997;SDS011;61314;53.444;9.902;2023-04-01T04:47:16;20.63;;;11.18;;
3997;SDS011;61314;53.444;9.902;2023-04-01T04:49:43;13.93;;;9.53;;
3997;SDS011;61314;53.444;9.902;2023-04-01T04:52:10;14.03;;;10.43;;
3997;SDS011;61314;53.444;9.902;2023-04-01T04:54:37;17.83;;;10.20;;
3997;SDS011;61314;53.444;9.902;2023-04-01T04:57:04;13.73;;;9.90;;
3997;SDS011;61314;53.444;9.902;2023-04-01T04:59:31;17.85;;;10.52;;
3997;SDS011;61314;53.444;9.902;2023-04-01T05:01:58;16.05;;;10.32;;
3997;SDS011;61314;53.444;9.902;2023-04-01T05:04:25;13.98;;;10.65;;
3997;SDS011;61314;53.444;9.902;2023-04-01T05:06:52;12.90;;;10.30;;
3997;SDS011;61314;53.444;9.902;2023-04-01T05:09:19;12.60;;;10.43;;
3997;SDS011;61314;53.444;9.902;2023-04-01T05:11:47;17.92;;;10.63;;
3997;SDS011;61314;53.444;9.902;2023-04-01T05:14:15;23.02;;;10.38;;
3997;SDS011;61314;53.444;9.902;2023-04-01T05:16:42;14.50;;;11.13;;
3997;SDS011;61314;53.444;9.902;2023-04-01T05:19:09;14.73;;;11.23;;
3997;SDS011;61314;53.444;9.902;2023-04-01T05:21:36;15.07;;;10.75;;
3997;SDS011;61314;53.444;9.902;2023-04-01T05:24:03;20.60;;;11.30;;
3997;SDS011;61314;53.444;9.902;2023-04-01T05:26:34;21.00;;;11.82;;
3997;SDS011;61314;53.444;9.902;2023-04-01T05:29:01;14.82;;;11.25;;
3997;SDS011;61314;53.444;9.902;2023-04-01T05:31:28;19.17;;;12.05;;
3997;SDS011;61314;53.444;9.902;2023-04-01T05:33:55;13.57;;;11.07;;
3997;SDS011;61314;53.444;9.902;2023-04-01T05:36:22;18.73;;;11.43;;
3997;SDS011;61314;53.444;9.902;2023-04-01T05:38:49;19.33;;;11.45;;
3997;SDS011;61314;53.444;9.902;2023-04-01T05:41:16;17.85;;;10.73;;
3997;SDS011;61314;53.444;9.902;2023-04-01T05:43:43;12.45;;;11.13;;
3997;SDS011;61314;53.444;9.902;2023-04-01T05:46:11;10.73;;;9.63;;
3997;SDS011;61314;53.444;9.902;2023-04-01T05:48:38;16.10;;;13.05;;
3997;SDS011;61314;53.444;9.902;2023-04-01T05:51:05;19.45;;;12.75;;
3997;SDS011;61314;53.444;9.902;2023-04-01T05:53:32;13.65;;;10.52;;
3997;SDS011;61314;53.444;9.902;2023-04-01T05:56:03;11.05;;;9.35;;
3997;SDS011;61314;53.444;9.902;2023-04-01T05:58:30;12.90;;;8.68;;
3997;SDS011;61314;53.444;9.902;2023-04-01T06:01:01;16.85;;;8.57;;
3997;SDS011;61314;53.444;9.902;2023-04-01T06:03:36;10.32;;;8.30;;
3997;SDS011;61314;53.444;9.902;2023-04-01T06:06:03;9.30;;;8.30;;
3997;SDS011;61314;53.444;9.902;2023-04-01T06:08:31;10.60;;;8.15;;
3997;SDS011;61314;53.444;9.902;2023-04-01T06:13:30;10.73;;;7.05;;
3997;SDS011;61314;53.444;9.902;2023-04-01T06:18:32;8.05;;;6.85;;
3997;SDS011;61314;53.444;9.902;2023-04-01T06:21:21;6.03;;;5.50;;
3997;SDS011;61314;53.444;9.902;2023-04-01T06:23:57;5.07;;;4.55;;
3997;SDS011;61314;53.444;9.902;2023-04-01T06:29:17;5.53;;;4.95;;
3997;SDS011;61314;53.444;9.902;2023-04-01T06:31:53;6.53;;;5.53;;
3997;SDS011;61314;53.444;9.902;2023-04-01T06:36:58;12.88;;;5.38;;
3997;SDS011;61314;53.444;9.902;2023-04-01T06:42:05;2.90;;;2.70;;
3997;SDS011;61314;53.444;9.902;2023-04-01T06:47:04;4.22;;;2.28;;
3997;SDS011;61314;53.444;9.902;2023-04-01T06:49:36;2.72;;;2.03;;
3997;SDS011;61314;53.444;9.902;2023-04-01T06:52:52;1.30;;;1.10;;
3997;SDS011;61314;53.444;9.902;2023-04-01T06:59:57;1.00;;;0.80;;
3997;SDS011;61314;53.444;9.902;2023-04-01T07:02:28;1.58;;;1.13;;
3997;SDS011;61314;53.444;9.902;2023-04-01T07:04:59;1.17;;;0.90;;
3997;SDS011;61314;53.444;9.902;2023-04-01T07:07:31;2.95;;;1.42;;
3997;SDS011;61314;53.444;9.902;2023-04-01T07:10:02;1.15;;;1.00;;
3997;SDS011;61314;53.444;9.902;2023-04-01T07:14:58;5.75;;;0.95;;
3997;SDS011;61314;53.444;9.902;2023-04-01T07:17:27;1.23;;;1.13;;
3997;SDS011;61314;53.444;9.902;2023-04-01T07:25:14;2.95;;;1.20;;
3997;SDS011;61314;53.444;9.902;2023-04-01T07:27:42;1.67;;;1.00;;
3997;SDS011;61314;53.444;9.902;2023-04-01T07:30:13;1.48;;;1.38;;
3997;SDS011;61314;53.444;9.902;2023-04-01T07:32:47;1.60;;;1.50;;
3997;SDS011;61314;53.444;9.902;2023-04-01T07:35:17;1.95;;;1.85;;
3997;SDS011;61314;53.444;9.902;2023-04-01T07:37:58;1.42;;;1.33;;
3997;SDS011;61314;53.444;9.902;2023-04-01T07:43:21;1.40;;;1.30;;
3997;SDS011;61314;53.444;9.902;2023-04-01T07:45:53;1.30;;;1.20;;
3997;SDS011;61314;53.444;9.902;2023-04-01T07:48:33;2.17;;;1.40;;
3997;SDS011;61314;53.444;9.902;2023-04-01T07:51:03;1.70;;;1.60;;
3997;SDS011;61314;53.444;9.902;2023-04-01T07:53:52;2.15;;;1.95;;
3997;SDS011;61314;53.444;9.902;2023-04-01T07:56:25;1.70;;;1.60;;
3997;SDS011;61314;53.444;9.902;2023-04-01T08:01:49;1.35;;;1.25;;
3997;SDS011;61314;53.444;9.902;2023-04-01T08:07:00;1.38;;;1.27;;
3997;SDS011;61314;53.444;9.902;2023-04-01T08:09:40;0.90;;;0.80;;
3997;SDS011;61314;53.444;9.902;2023-04-01T08:12:13;2.55;;;1.20;;
3997;SDS011;61314;53.444;9.902;2023-04-01T08:20:21;1.40;;;1.05;;
3997;SDS011;61314;53.444;9.902;2023-04-01T08:22:53;1.63;;;1.10;;
3997;SDS011;61314;53.444;9.902;2023-04-01T08:25:24;1.13;;;1.00;;
3997;SDS011;61314;53.444;9.902;2023-04-01T08:28:13;1.00;;;0.90;;
3997;SDS011;61314;53.444;9.902;2023-04-01T08:30:50;1.00;;;0.70;;
3997;SDS011;61314;53.444;9.902;2023-04-01T08:35:50;1.45;;;0.70;;
3997;SDS011;61314;53.444;9.902;2023-04-01T08:38:24;1.13;;;1.02;;
3997;SDS011;61314;53.444;9.902;2023-04-01T08:46:08;1.20;;;1.00;;
3997;SDS011;61314;53.444;9.902;2023-04-01T08:48:55;0.90;;;0.75;;
3997;SDS011;61314;53.444;9.902;2023-04-01T08:56:35;1.00;;;0.90;;
3997;SDS011;61314;53.444;9.902;2023-04-01T08:59:19;0.90;;;0.75;;
3997;SDS011;61314;53.444;9.902;2023-04-01T09:01:58;1.00;;;0.80;;
3997;SDS011;61314;53.444;9.902;2023-04-01T09:04:35;1.30;;;1.17;;
3997;SDS011;61314;53.444;9.902;2023-04-01T09:09:52;1.17;;;1.05;;
3997;SDS011;61314;53.444;9.902;2023-04-01T09:12:25;1.35;;;0.90;;
3997;SDS011;61314;53.444;9.902;2023-04-01T09:20:07;1.10;;;0.95;;
3997;SDS011;61314;53.444;9.902;2023-04-01T09:22:57;1.40;;;1.10;;
3997;SDS011;61314;53.444;9.902;2023-04-01T09:25:30;2.38;;;1.02;;
3997;SDS011;61314;53.444;9.902;2023-04-01T09:28:08;1.20;;;1.10;;
3997;SDS011;61314;53.444;9.902;2023-04-01T09:38:49;0.95;;;0.80;;
3997;SDS011;61314;53.444;9.902;2023-04-01T09:41:24;3.05;;;1.30;;
3997;SDS011;61314;53.444;9.902;2023-04-01T09:44:14;1.20;;;1.10;;
3997;SDS011;61314;53.444;9.902;2023-04-01T09:54:24;1.27;;;1.17;;
3997;SDS011;61314;53.444;9.902;2023-04-01T10:02:31;1.20;;;1.08;;
3997;SDS011;61314;53.444;9.902;2023-04-01T10:12:57;1.30;;;0.90;;
3997;SDS011;61314;53.444;9.902;2023-04-01T10:18:35;0.95;;;0.82;;
3997;SDS011;61314;53.444;9.902;2023-04-01T10:23:46;1.25;;;1.00;;
3997;SDS011;61314;53.444;9.902;2023-04-01T10:26:50;1.20;;;0.90;;
3997;SDS011;61314;53.444;9.902;2023-04-01T10:32:00;1.45;;;0.98;;
3997;SDS011;61314;53.444;9.902;2023-04-01T10:34:34;3.15;;;3.05;;
3997;SDS011;61314;53.444;9.902;2023-04-01T10:45:16;3.08;;;1.15;;
3997;SDS011;61314;53.444;9.902;2023-04-01T10:48:04;1.40;;;1.30;;
3997;SDS011;61314;53.444;9.902;2023-04-01T10:50:46;1.92;;;1.30;;
3997;SDS011;61314;53.444;9.902;2023-04-01T11:04:13;2.03;;;1.45;;
3997;SDS011;61314;53.444;9.902;2023-04-01T11:15:31;2.28;;;1.55;;
3997;SDS011;61314;53.444;9.902;2023-04-01T11:21:06;3.50;;;2.08;;
3997;SDS011;61314;53.444;9.902;2023-04-01T11:23:43;1.00;;;0.90;;
3997;SDS011;61314;53.444;9.902;2023-04-01T11:29:12;1.77;;;1.48;;
3997;SDS011;61314;53.444;9.902;2023-04-01T11:31:50;1.10;;;1.00;;
3997;SDS011;61314;53.444;9.902;2023-04-01T11:34:27;1.23;;;1.13;;
3997;SDS011;61314;53.444;9.902;2023-04-01T11:44:26;1.65;;;1.20;;
3997;SDS011;61314;53.444;9.902;2023-04-01T11:47:14;2.55;;;1.30;;
3997;SDS011;61314;53.444;9.902;2023-04-01T11:54:58;1.25;;;1.15;;
3997;SDS011;61314;53.444;9.902;2023-04-01T11:57:42;2.20;;;1.30;;
3997;SDS011;61314;53.444;9.902;2023-04-01T12:00:22;1.10;;;1.00;;
3997;SDS011;61314;53.444;9.902;2023-04-01T12:05:38;1.95;;;1.30;;
3997;SDS011;61314;53.444;9.902;2023-04-01T12:10:46;1.42;;;1.33;;
3997;SDS011;61314;53.444;9.902;2023-04-01T12:13:31;1.67;;;1.58;;
3997;SDS011;61314;53.444;9.902;2023-04-01T12:16:04;2.15;;;1.80;;
3997;SDS011;61314;53.444;9.902;2023-04-01T12:18:38;5.35;;;1.77;;
3997;SDS011;61314;53.444;9.902;2023-04-01T12:21:26;3.00;;;2.03;;
3997;SDS011;61314;53.444;9.902;2023-04-01T12:26:52;7.05;;;3.58;;
3997;SDS011;61314;53.444;9.902;2023-04-01T12:29:39;12.90;;;5.80;;
3997;SDS011;61314;53.444;9.902;2023-04-01T12:32:16;7.57;;;4.70;;
3997;SDS011;61314;53.444;9.902;2023-04-01T12:37:35;3.35;;;3.15;;
3997;SDS011;61314;53.444;9.902;2023-04-01T12:40:29;3.63;;;3.30;;
3997;SDS011;61314;53.444;9.902;2023-04-01T12:45:35;3.20;;;3.00;;
3997;SDS011;61314;53.444;9.902;2023-04-01T12:48:08;4.60;;;3.30;;
3997;SDS011;61314;53.444;9.902;2023-04-01T12:50:43;3.75;;;3.45;;
3997;SDS011;61314;53.444;9.902;2023-04-01T12:55:50;3.20;;;3.00;;
3997;SDS011;61314;53.444;9.902;2023-04-01T13:06:13;4.55;;;3.25;;
3997;SDS011;61314;53.444;9.902;2023-04-01T13:09:11;5.55;;;2.75;;
3997;SDS011;61314;53.444;9.902;2023-04-01T13:22:07;5.07;;;3.95;;
3997;SDS011;61314;53.444;9.902;2023-04-01T13:24:48;4.20;;;3.80;;
3997;SDS011;61314;53.444;9.902;2023-04-01T13:27:18;5.38;;;2.95;;
3997;SDS011;61314;53.444;9.902;2023-04-01T13:30:01;8.25;;;4.47;;
3997;SDS011;61314;53.444;9.902;2023-04-01T13:32:37;4.95;;;3.90;;
3997;SDS011;61314;53.444;9.902;2023-04-01T13:38:00;3.10;;;2.90;;
3997;SDS011;61314;53.444;9.902;2023-04-01T13:40:51;3.35;;;3.00;;
3997;SDS011;61314;53.444;9.902;2023-04-01T13:43:30;9.20;;;3.10;;
3997;SDS011;61314;53.444;9.902;2023-04-01T13:48:38;3.90;;;3.53;;
3997;SDS011;61314;53.444;9.902;2023-04-01T13:56:24;5.20;;;3.17;;
3997;SDS011;61314;53.444;9.902;2023-04-01T14:04:29;5.20;;;3.50;;
3997;SDS011;61314;53.444;9.902;2023-04-01T14:17:01;3.25;;;3.05;;
3997;SDS011;61314;53.444;9.902;2023-04-01T14:19:33;3.53;;;2.58;;
3997;SDS011;61314;53.444;9.902;2023-04-01T14:27:27;3.80;;;3.22;;
3997;SDS011;61314;53.444;9.902;2023-04-01T14:30:04;4.50;;;3.20;;
3997;SDS011;61314;53.444;9.902;2023-04-01T14:35:12;4.40;;;3.65;;
3997;SDS011;61314;53.444;9.902;2023-04-01T14:37:58;5.93;;;4.00;;
3997;SDS011;61314;53.444;9.902;2023-04-01T14:46:58;7.38;;;4.75;;
3997;SDS011;61314;53.444;9.902;2023-04-01T14:48:53;4.60;;;3.90;;
3997;SDS011;61314;53.444;9.902;2023-04-01T14:51:28;5.28;;;4.50;;
3997;SDS011;61314;53.444;9.902;2023-04-01T14:53:59;5.30;;;4.00;;
3997;SDS011;61314;53.444;9.902;2023-04-01T14:59:10;5.90;;;3.75;;
3997;SDS011;61314;53.444;9.902;2023-04-01T15:01:47;7.03;;;4.55;;
3997;SDS011;61314;53.444;9.902;2023-04-01T15:06:55;10.95;;;4.32;;
3997;SDS011;61314;53.444;9.902;2023-04-01T15:09:32;4.10;;;3.70;;
3997;SDS011;61314;53.444;9.902;2023-04-01T15:14:46;5.35;;;3.90;;
3997;SDS011;61314;53.444;9.902;2023-04-01T15:17:19;5.85;;;4.47;;
3997;SDS011;61314;53.444;9.902;2023-04-01T15:20:40;5.13;;;4.65;;
3997;SDS011;61314;53.444;9.902;2023-04-01T15:25:06;8.10;;;5.28;;
3997;SDS011;61314;53.444;9.902;2023-04-01T15:32:58;14.88;;;6.32;;
3997;SDS011;61314;53.444;9.902;2023-04-01T15:40:38;12.93;;;5.88;;
3997;SDS011;61314;53.444;9.902;2023-04-01T15:45:56;6.38;;;4.65;;
3997;SDS011;61314;53.444;9.902;2023-04-01T15:48:38;14.93;;;5.20;;
3997;SDS011;61314;53.444;9.902;2023-04-01T15:56:25;8.25;;;5.25;;
3997;SDS011;61314;53.444;9.902;2023-04-01T15:58:59;10.27;;;4.75;;
3997;SDS011;61314;53.444;9.902;2023-04-01T16:07:51;5.43;;;4.35;;
3997;SDS011;61314;53.444;9.902;2023-04-01T16:09:59;5.30;;;4.63;;
3997;SDS011;61314;53.444;9.902;2023-04-01T16:12:37;6.53;;;4.20;;
3997;SDS011;61314;53.444;9.902;2023-04-01T16:15:13;8.63;;;4.78;;
3997;SDS011;61314;53.444;9.902;2023-04-01T16:25:49;11.18;;;4.72;;
3997;SDS011;61314;53.444;9.902;2023-04-01T16:28:36;8.02;;;4.90;;
3997;SDS011;61314;53.444;9.902;2023-04-01T16:31:09;5.90;;;5.00;;
3997;SDS011;61314;53.444;9.902;2023-04-01T16:33:46;15.00;;;5.18;;
3997;SDS011;61314;53.444;9.902;2023-04-01T16:39:18;11.00;;;5.63;;
3997;SDS011;61314;53.444;9.902;2023-04-01T16:41:48;8.30;;;7.00;;
3997;SDS011;61314;53.444;9.902;2023-04-01T16:44:24;11.00;;;5.50;;
3997;SDS011;61314;53.444;9.902;2023-04-01T16:46:52;13.60;;;7.72;;
3997;SDS011;61314;53.444;9.902;2023-04-01T16:54:42;16.70;;;6.65;;
3997;SDS011;61314;53.444;9.902;2023-04-01T17:00:02;12.20;;;6.55;;
3997;SDS011;61314;53.444;9.902;2023-04-01T17:02:31;9.38;;;5.75;;
3997;SDS011;61314;53.444;9.902;2023-04-01T17:05:03;9.90;;;7.13;;
3997;SDS011;61314;53.444;9.902;2023-04-01T17:12:49;12.73;;;7.35;;
3997;SDS011;61314;53.444;9.902;2023-04-01T17:15:26;11.18;;;7.03;;
3997;SDS011;61314;53.444;9.902;2023-04-01T17:18:08;12.65;;;7.80;;
3997;SDS011;61314;53.444;9.902;2023-04-01T17:20:42;11.25;;;7.00;;
3997;SDS011;61314;53.444;9.902;2023-04-01T17:23:19;13.23;;;7.40;;
3997;SDS011;61314;53.444;9.902;2023-04-01T17:31:02;12.63;;;7.43;;
3997;SDS011;61314;53.444;9.902;2023-04-01T17:39:09;16.23;;;7.32;;
3997;SDS011;61314;53.444;9.902;2023-04-01T17:41:51;18.67;;;7.00;;
3997;SDS011;61314;53.444;9.902;2023-04-01T17:44:30;9.82;;;7.55;;
3997;SDS011;61314;53.444;9.902;2023-04-01T17:49:45;19.65;;;6.90;;
3997;SDS011;61314;53.444;9.902;2023-04-01T17:52:22;14.00;;;8.05;;
3997;SDS011;61314;53.444;9.902;2023-04-01T17:54:55;16.30;;;7.05;;
3997;SDS011;61314;53.444;9.902;2023-04-01T18:00:18;14.13;;;5.80;;
3997;SDS011;61314;53.444;9.902;2023-04-01T18:05:45;16.20;;;7.10;;
3997;SDS011;61314;53.444;9.902;2023-04-01T18:10:51;8.73;;;5.85;;
3997;SDS011;61314;53.444;9.902;2023-04-01T18:13:37;9.82;;;6.57;;
3997;SDS011;61314;53.444;9.902;2023-04-01T18:16:21;9.32;;;5.22;;
3997;SDS011;61314;53.444;9.902;2023-04-01T18:19:16;14.88;;;6.10;;
3997;SDS011;61314;53.444;9.902;2023-04-01T18:21:48;7.97;;;5.90;;
3997;SDS011;61314;53.444;9.902;2023-04-01T18:26:48;8.45;;;4.72;;
3997;SDS011;61314;53.444;9.902;2023-04-01T18:29:38;11.32;;;5.22;;
3997;SDS011;61314;53.444;9.902;2023-04-01T18:32:24;11.82;;;6.13;;
3997;SDS011;61314;53.444;9.902;2023-04-01T18:34:58;8.40;;;5.45;;
3997;SDS011;61314;53.444;9.902;2023-04-01T18:37:28;8.93;;;4.97;;
3997;SDS011;61314;53.444;9.902;2023-04-01T18:45:37;9.55;;;5.50;;
3997;SDS011;61314;53.444;9.902;2023-04-01T18:48:11;18.92;;;5.45;;
3997;SDS011;61314;53.444;9.902;2023-04-01T18:50:56;8.48;;;4.88;;
3997;SDS011;61314;53.444;9.902;2023-04-01T18:53:27;9.70;;;6.00;;
3997;SDS011;61314;53.444;9.902;2023-04-01T18:55:57;8.32;;;4.93;;
3997;SDS011;61314;53.444;9.902;2023-04-01T18:58:27;5.57;;;4.50;;
3997;SDS011;61314;53.444;9.902;2023-04-01T19:03:44;6.10;;;4.72;;
3997;SDS011;61314;53.444;9.902;2023-04-01T19:06:17;6.35;;;4.47;;
3997;SDS011;61314;53.444;9.902;2023-04-01T19:08:45;13.48;;;5.43;;
3997;SDS011;61314;53.444;9.902;2023-04-01T19:11:46;9.18;;;5.07;;
3997;SDS011;61314;53.444;9.902;2023-04-01T19:14:16;7.35;;;5.55;;
3997;SDS011;61314;53.444;9.902;2023-04-01T19:19:34;7.55;;;4.85;;
3997;SDS011;61314;53.444;9.902;2023-04-01T19:24:45;8.85;;;5.20;;
3997;SDS011;61314;53.444;9.902;2023-04-01T19:27:27;5.90;;;4.70;;
3997;SDS011;61314;53.444;9.902;2023-04-01T19:40:53;7.82;;;4.63;;
3997;SDS011;61314;53.444;9.902;2023-04-01T19:43:35;5.87;;;4.10;;
3997;SDS011;61314;53.444;9.902;2023-04-01T19:46:26;7.78;;;4.45;;
3997;SDS011;61314;53.444;9.902;2023-04-01T19:51:48;4.50;;;3.88;;
3997;SDS011;61314;53.444;9.902;2023-04-01T19:56:48;6.00;;;3.47;;
3997;SDS011;61314;53.444;9.902;2023-04-01T20:05:00;6.25;;;3.70;;
3997;SDS011;61314;53.444;9.902;2023-04-01T20:08:15;5.38;;;3.28;;
3997;SDS011;61314;53.444;9.902;2023-04-01T20:17:48;7.90;;;4.00;;
3997;SDS011;61314;53.444;9.902;2023-04-01T20:20:19;6.53;;;3.42;;
3997;SDS011;61314;53.444;9.902;2023-04-01T20:25:17;4.53;;;3.00;;
3997;SDS011;61314;53.444;9.902;2023-04-01T20:40:51;6.65;;;4.07;;
3997;SDS011;61314;53.444;9.902;2023-04-01T20:43:22;16.73;;;4.20;;
3997;SDS011;61314;53.444;9.902;2023-04-01T20:46:06;6.47;;;4.30;;
3997;SDS011;61314;53.444;9.902;2023-04-01T20:48:46;5.47;;;3.40;;
3997;SDS011;61314;53.444;9.902;2023-04-01T20:51:17;8.02;;;3.85;;
3997;SDS011;61314;53.444;9.902;2023-04-01T20:56:21;3.85;;;3.55;;
3997;SDS011;61314;53.444;9.902;2023-04-01T21:04:03;5.95;;;3.45;;
3997;SDS011;61314;53.444;9.902;2023-04-01T21:09:25;8.93;;;4.13;;
3997;SDS011;61314;53.444;9.902;2023-04-01T21:12:03;5.30;;;3.90;;
3997;SDS011;61314;53.444;9.902;2023-04-01T21:25:45;6.55;;;3.45;;
3997;SDS011;61314;53.444;9.902;2023-04-01T21:31:00;3.90;;;3.35;;
3997;SDS011;61314;53.444;9.902;2023-04-01T21:33:53;7.07;;;3.22;;
3997;SDS011;61314;53.444;9.902;2023-04-01T21:36:20;3.45;;;2.70;;
3997;SDS011;61314;53.444;9.902;2023-04-01T21:38:55;13.23;;;3.25;;
3997;SDS011;61314;53.444;9.902;2023-04-01T21:41:38;5.50;;;2.60;;
3997;SDS011;61314;53.444;9.902;2023-04-01T21:44:17;3.22;;;2.63;;
3997;SDS011;61314;53.444;9.902;2023-04-01T21:55:03;6.88;;;2.90;;
3997;SDS011;61314;53.444;9.902;2023-04-01T22:00:07;10.98;;;3.28;;
3997;SDS011;61314;53.444;9.902;2023-04-01T22:08:02;6.95;;;2.83;;
3997;SDS011;61314;53.444;9.902;2023-04-01T22:10:38;5.97;;;2.70;;
3997;SDS011;61314;53.444;9.902;2023-04-01T22:13:16;10.02;;;2.53;;
3997;SDS011;61314;53.444;9.902;2023-04-01T22:18:32;9.52;;;2.90;;
3997;SDS011;61314;53.444;9.902;2023-04-01T22:21:03;5.38;;;2.58;;
3997;SDS011;61314;53.444;9.902;2023-04-01T22:23:36;6.20;;;2.60;;
3997;SDS011;61314;53.444;9.902;2023-04-01T22:29:01;9.90;;;2.97;;